sensor_id;sensor_type;location;lat;lon;timestamp;P1;durP1;ratioP1;P2;durP2;ratioP2
64601;SDS011;68371;42.630;23.192;2023-04-24T00:01:42;6.13;;;4.40;;
64601;SDS011;68371;42.630;23.192;2023-04-24T00:04:10;7.20;;;4.25;;
64601;SDS011;68371;42.630;23.192;2023-04-24T00:06:41;6.45;;;4.10;;
64601;SDS011;68371;42.630;23.192;2023-04-24T00:09:08;6.15;;;4.20;;
64601;SDS011;68371;42.630;23.192;2023-04-24T00:11:35;8.25;;;4.40;;
64601;SDS011;68371;42.630;23.192;2023-04-24T00:14:03;6.20;;;3.80;;
64601;SDS011;68371;42.630;23.192;2023-04-24T00:16:29;6.25;;;3.78;;
64601;SDS011;68371;42.630;23.192;2023-04-24T00:18:56;4.60;;;3.58;;
64601;SDS011;68371;42.630;23.192;2023-04-24T00:21:29;6.60;;;3.95;;
64601;SDS011;68371;42.630;23.192;2023-04-24T00:23:59;5.60;;;3.45;;
64601;SDS011;68371;42.630;23.192;2023-04-24T00:26:26;5.18;;;3.78;;
64601;SDS011;68371;42.630;23.192;2023-04-24T00:28:54;7.63;;;3.83;;
64601;SDS011;68371;42.630;23.192;2023-04-24T00:31:21;5.90;;;3.78;;
64601;SDS011;68371;42.630;23.192;2023-04-24T00:33:48;7.03;;;3.63;;
64601;SDS011;68371;42.630;23.192;2023-04-24T00:36:15;4.55;;;3.60;;
64601;SDS011;68371;42.630;23.192;2023-04-24T00:38:43;4.45;;;3.53;;
64601;SDS011;68371;42.630;23.192;2023-04-24T00:41:10;7.32;;;4.28;;
64601;SDS011;68371;42.630;23.192;2023-04-24T00:43:37;5.57;;;3.92;;
64601;SDS011;68371;42.630;23.192;2023-04-24T00:46:04;6.15;;;4.07;;
64601;SDS011;68371;42.630;23.192;2023-04-24T00:48:31;9.90;;;4.13;;
64601;SDS011;68371;42.630;23.192;2023-04-24T00:50:58;7.05;;;3.92;;
64601;SDS011;68371;42.630;23.192;2023-04-24T00:53:26;7.13;;;3.88;;
64601;SDS011;68371;42.630;23.192;2023-04-24T00:55:54;5.00;;;3.78;;
64601;SDS011;68371;42.630;23.192;2023-04-24T00:58:22;7.75;;;3.55;;
64601;SDS011;68371;42.630;23.192;2023-04-24T01:00:49;5.18;;;3.90;;
64601;SDS011;68371;42.630;23.192;2023-04-24T01:03:18;7.93;;;4.07;;
64601;SDS011;68371;42.630;23.192;2023-04-24T01:05:46;7.95;;;3.72;;
64601;SDS011;68371;42.630;23.192;2023-04-24T01:08:14;6.18;;;3.85;;
64601;SDS011;68371;42.630;23.192;2023-04-24T01:10:41;6.63;;;4.22;;
64601;SDS011;68371;42.630;23.192;2023-04-24T01:13:11;5.82;;;4.10;;
64601;SDS011;68371;42.630;23.192;2023-04-24T01:15:38;13.93;;;4.40;;
64601;SDS011;68371;42.630;23.192;2023-04-24T01:18:05;7.25;;;4.55;;
64601;SDS011;68371;42.630;23.192;2023-04-24T01:20:31;5.38;;;4.28;;
64601;SDS011;68371;42.630;23.192;2023-04-24T01:23:03;7.50;;;4.55;;
64601;SDS011;68371;42.630;23.192;2023-04-24T01:25:31;6.22;;;4.07;;
64601;SDS011;68371;42.630;23.192;2023-04-24T01:27:59;9.23;;;4.53;;
64601;SDS011;68371;42.630;23.192;2023-04-24T01:30:28;5.97;;;4.35;;
64601;SDS011;68371;42.630;23.192;2023-04-24T01:32:57;7.88;;;4.70;;
64601;SDS011;68371;42.630;23.192;2023-04-24T01:35:27;8.73;;;5.72;;
64601;SDS011;68371;42.630;23.192;2023-04-24T01:37:53;6.25;;;4.65;;
64601;SDS011;68371;42.630;23.192;2023-04-24T01:40:22;8.88;;;5.18;;
64601;SDS011;68371;42.630;23.192;2023-04-24T01:42:49;11.20;;;5.13;;
64601;SDS011;68371;42.630;23.192;2023-04-24T01:45:16;8.27;;;4.53;;
64601;SDS011;68371;42.630;23.192;2023-04-24T01:47:43;5.85;;;4.85;;
64601;SDS011;68371;42.630;23.192;2023-04-24T01:50:11;6.43;;;4.53;;
64601;SDS011;68371;42.630;23.192;2023-04-24T01:52:38;7.15;;;4.70;;
64601;SDS011;68371;42.630;23.192;2023-04-24T01:55:05;6.75;;;5.03;;
64601;SDS011;68371;42.630;23.192;2023-04-24T01:57:34;5.82;;;4.53;;
64601;SDS011;68371;42.630;23.192;2023-04-24T02:00:03;7.78;;;4.95;;
64601;SDS011;68371;42.630;23.192;2023-04-24T02:02:33;6.30;;;4.55;;
64601;SDS011;68371;42.630;23.192;2023-04-24T02:05:00;10.52;;;5.97;;
64601;SDS011;68371;42.630;23.192;2023-04-24T02:07:28;9.90;;;6.18;;
64601;SDS011;68371;42.630;23.192;2023-04-24T02:09:55;11.10;;;6.63;;
64601;SDS011;68371;42.630;23.192;2023-04-24T02:12:21;9.45;;;6.55;;
64601;SDS011;68371;42.630;23.192;2023-04-24T02:14:49;9.63;;;6.32;;
64601;SDS011;68371;42.630;23.192;2023-04-24T02:17:16;10.63;;;7.15;;
64601;SDS011;68371;42.630;23.192;2023-04-24T02:19:44;11.27;;;6.07;;
64601;SDS011;68371;42.630;23.192;2023-04-24T02:22:10;9.10;;;5.78;;
64601;SDS011;68371;42.630;23.192;2023-04-24T02:24:37;10.45;;;5.88;;
64601;SDS011;68371;42.630;23.192;2023-04-24T02:27:05;9.57;;;6.05;;
64601;SDS011;68371;42.630;23.192;2023-04-24T02:29:31;13.02;;;6.28;;
64601;SDS011;68371;42.630;23.192;2023-04-24T02:32:03;9.77;;;6.18;;
64601;SDS011;68371;42.630;23.192;2023-04-24T02:34:31;12.30;;;6.70;;
64601;SDS011;68371;42.630;23.192;2023-04-24T02:36:59;8.10;;;5.13;;
64601;SDS011;68371;42.630;23.192;2023-04-24T02:39:27;9.85;;;5.43;;
64601;SDS011;68371;42.630;23.192;2023-04-24T02:41:54;4.80;;;3.80;;
64601;SDS011;68371;42.630;23.192;2023-04-24T02:44:21;6.22;;;4.00;;
64601;SDS011;68371;42.630;23.192;2023-04-24T02:46:47;5.93;;;4.18;;
64601;SDS011;68371;42.630;23.192;2023-04-24T02:49:15;8.00;;;4.63;;
64601;SDS011;68371;42.630;23.192;2023-04-24T02:51:42;7.25;;;4.32;;
64601;SDS011;68371;42.630;23.192;2023-04-24T02:54:09;7.70;;;4.95;;
64601;SDS011;68371;42.630;23.192;2023-04-24T02:56:36;7.05;;;4.55;;
64601;SDS011;68371;42.630;23.192;2023-04-24T02:59:03;6.38;;;4.15;;
64601;SDS011;68371;42.630;23.192;2023-04-24T03:01:31;5.88;;;4.07;;
64601;SDS011;68371;42.630;23.192;2023-04-24T03:03:58;6.28;;;4.18;;
64601;SDS011;68371;42.630;23.192;2023-04-24T03:06:26;7.82;;;4.53;;
64601;SDS011;68371;42.630;23.192;2023-04-24T03:08:53;6.50;;;4.15;;
64601;SDS011;68371;42.630;23.192;2023-04-24T03:11:20;6.60;;;4.35;;
64601;SDS011;68371;42.630;23.192;2023-04-24T03:13:46;5.68;;;4.13;;
64601;SDS011;68371;42.630;23.192;2023-04-24T03:16:13;7.05;;;4.13;;
64601;SDS011;68371;42.630;23.192;2023-04-24T03:18:40;6.05;;;4.30;;
64601;SDS011;68371;42.630;23.192;2023-04-24T03:21:07;5.75;;;3.85;;
64601;SDS011;68371;42.630;23.192;2023-04-24T03:23:37;9.82;;;4.00;;
64601;SDS011;68371;42.630;23.192;2023-04-24T03:26:03;9.48;;;4.53;;
64601;SDS011;68371;42.630;23.192;2023-04-24T03:28:32;9.90;;;4.15;;
64601;SDS011;68371;42.630;23.192;2023-04-24T03:30:59;5.60;;;3.67;;
64601;SDS011;68371;42.630;23.192;2023-04-24T03:33:26;10.70;;;4.70;;
64601;SDS011;68371;42.630;23.192;2023-04-24T03:35:52;7.43;;;4.35;;
64601;SDS011;68371;42.630;23.192;2023-04-24T03:38:19;10.60;;;4.20;;
64601;SDS011;68371;42.630;23.192;2023-04-24T03:40:48;8.50;;;4.40;;
64601;SDS011;68371;42.630;23.192;2023-04-24T03:43:15;6.30;;;3.90;;
64601;SDS011;68371;42.630;23.192;2023-04-24T03:45:41;8.93;;;4.13;;
64601;SDS011;68371;42.630;23.192;2023-04-24T03:48:08;9.38;;;4.13;;
64601;SDS011;68371;42.630;23.192;2023-04-24T03:50:35;7.72;;;4.25;;
64601;SDS011;68371;42.630;23.192;2023-04-24T03:53:03;6.10;;;4.35;;
64601;SDS011;68371;42.630;23.192;2023-04-24T03:55:30;6.20;;;3.90;;
64601;SDS011;68371;42.630;23.192;2023-04-24T03:57:58;6.05;;;4.18;;
64601;SDS011;68371;42.630;23.192;2023-04-24T04:00:25;7.18;;;4.18;;
64601;SDS011;68371;42.630;23.192;2023-04-24T04:02:52;8.13;;;4.50;;
64601;SDS011;68371;42.630;23.192;2023-04-24T04:05:19;7.47;;;4.05;;
64601;SDS011;68371;42.630;23.192;2023-04-24T04:07:45;6.35;;;4.10;;
64601;SDS011;68371;42.630;23.192;2023-04-24T04:10:12;5.68;;;3.72;;
64601;SDS011;68371;42.630;23.192;2023-04-24T04:12:39;5.63;;;3.35;;
64601;SDS011;68371;42.630;23.192;2023-04-24T04:15:09;10.20;;;4.10;;
64601;SDS011;68371;42.630;23.192;2023-04-24T04:17:36;6.78;;;4.45;;
64601;SDS011;68371;42.630;23.192;2023-04-24T04:20:06;6.97;;;4.57;;
64601;SDS011;68371;42.630;23.192;2023-04-24T04:22:35;5.90;;;3.90;;
64601;SDS011;68371;42.630;23.192;2023-04-24T04:25:02;10.10;;;4.38;;
64601;SDS011;68371;42.630;23.192;2023-04-24T04:27:29;8.63;;;5.93;;
64601;SDS011;68371;42.630;23.192;2023-04-24T04:29:57;6.15;;;4.05;;
64601;SDS011;68371;42.630;23.192;2023-04-24T04:32:25;11.15;;;5.22;;
64601;SDS011;68371;42.630;23.192;2023-04-24T04:34:52;6.97;;;4.63;;
64601;SDS011;68371;42.630;23.192;2023-04-24T04:37:19;6.28;;;4.22;;
64601;SDS011;68371;42.630;23.192;2023-04-24T04:39:46;8.13;;;4.13;;
64601;SDS011;68371;42.630;23.192;2023-04-24T04:42:12;8.15;;;4.43;;
64601;SDS011;68371;42.630;23.192;2023-04-24T04:44:40;12.27;;;4.40;;
64601;SDS011;68371;42.630;23.192;2023-04-24T04:47:07;7.85;;;4.20;;
64601;SDS011;68371;42.630;23.192;2023-04-24T04:49:38;6.00;;;4.18;;
64601;SDS011;68371;42.630;23.192;2023-04-24T04:52:08;6.05;;;4.38;;
64601;SDS011;68371;42.630;23.192;2023-04-24T04:54:37;5.93;;;4.30;;
64601;SDS011;68371;42.630;23.192;2023-04-24T04:57:03;7.53;;;4.47;;
64601;SDS011;68371;42.630;23.192;2023-04-24T04:59:31;7.07;;;4.28;;
64601;SDS011;68371;42.630;23.192;2023-04-24T05:01:57;9.15;;;4.40;;
64601;SDS011;68371;42.630;23.192;2023-04-24T05:04:24;6.95;;;4.32;;
64601;SDS011;68371;42.630;23.192;2023-04-24T05:06:52;6.45;;;4.07;;
64601;SDS011;68371;42.630;23.192;2023-04-24T05:09:19;6.63;;;4.20;;
64601;SDS011;68371;42.630;23.192;2023-04-24T05:11:46;8.95;;;4.57;;
64601;SDS011;68371;42.630;23.192;2023-04-24T05:14:13;7.40;;;4.50;;
64601;SDS011;68371;42.630;23.192;2023-04-24T05:16:40;11.43;;;4.50;;
64601;SDS011;68371;42.630;23.192;2023-04-24T05:19:08;5.20;;;3.65;;
64601;SDS011;68371;42.630;23.192;2023-04-24T05:21:37;8.00;;;3.95;;
64601;SDS011;68371;42.630;23.192;2023-04-24T05:24:06;9.70;;;4.60;;
64601;SDS011;68371;42.630;23.192;2023-04-24T05:26:33;7.72;;;4.50;;
64601;SDS011;68371;42.630;23.192;2023-04-24T05:29:00;7.90;;;4.43;;
64601;SDS011;68371;42.630;23.192;2023-04-24T05:31:27;15.13;;;9.85;;
64601;SDS011;68371;42.630;23.192;2023-04-24T05:33:54;15.50;;;9.60;;
64601;SDS011;68371;42.630;23.192;2023-04-24T05:36:20;10.90;;;6.38;;
64601;SDS011;68371;42.630;23.192;2023-04-24T05:38:47;10.55;;;5.85;;
64601;SDS011;68371;42.630;23.192;2023-04-24T05:41:15;8.13;;;3.97;;
64601;SDS011;68371;42.630;23.192;2023-04-24T05:43:45;7.60;;;4.63;;
64601;SDS011;68371;42.630;23.192;2023-04-24T05:46:13;7.18;;;4.45;;
64601;SDS011;68371;42.630;23.192;2023-04-24T05:48:40;10.93;;;3.65;;
64601;SDS011;68371;42.630;23.192;2023-04-24T05:51:09;8.00;;;4.13;;
64601;SDS011;68371;42.630;23.192;2023-04-24T05:53:36;8.63;;;4.78;;
64601;SDS011;68371;42.630;23.192;2023-04-24T05:56:03;11.68;;;4.38;;
64601;SDS011;68371;42.630;23.192;2023-04-24T05:58:31;7.25;;;3.90;;
64601;SDS011;68371;42.630;23.192;2023-04-24T06:00:57;7.13;;;3.92;;
64601;SDS011;68371;42.630;23.192;2023-04-24T06:03:26;8.70;;;5.25;;
64601;SDS011;68371;42.630;23.192;2023-04-24T06:05:53;7.05;;;4.47;;
64601;SDS011;68371;42.630;23.192;2023-04-24T06:08:20;6.45;;;4.03;;
64601;SDS011;68371;42.630;23.192;2023-04-24T06:10:46;4.82;;;3.65;;
64601;SDS011;68371;42.630;23.192;2023-04-24T06:13:16;5.47;;;4.47;;
64601;SDS011;68371;42.630;23.192;2023-04-24T06:15:46;6.43;;;2.92;;
64601;SDS011;68371;42.630;23.192;2023-04-24T06:18:15;4.68;;;2.83;;
64601;SDS011;68371;42.630;23.192;2023-04-24T06:20:41;8.70;;;4.70;;
64601;SDS011;68371;42.630;23.192;2023-04-24T06:23:10;3.90;;;2.92;;
64601;SDS011;68371;42.630;23.192;2023-04-24T06:25:37;6.28;;;3.28;;
64601;SDS011;68371;42.630;23.192;2023-04-24T06:28:04;4.32;;;3.47;;
64601;SDS011;68371;42.630;23.192;2023-04-24T06:30:31;4.25;;;2.58;;
64601;SDS011;68371;42.630;23.192;2023-04-24T06:32:59;6.15;;;3.72;;
64601;SDS011;68371;42.630;23.192;2023-04-24T06:35:26;5.20;;;3.45;;
64601;SDS011;68371;42.630;23.192;2023-04-24T06:37:52;4.68;;;3.15;;
64601;SDS011;68371;42.630;23.192;2023-04-24T06:40:21;5.28;;;2.40;;
64601;SDS011;68371;42.630;23.192;2023-04-24T06:42:47;6.53;;;2.90;;
64601;SDS011;68371;42.630;23.192;2023-04-24T06:45:16;5.97;;;3.80;;
64601;SDS011;68371;42.630;23.192;2023-04-24T06:47:43;6.82;;;3.60;;
64601;SDS011;68371;42.630;23.192;2023-04-24T06:50:13;7.30;;;4.05;;
64601;SDS011;68371;42.630;23.192;2023-04-24T06:52:42;6.53;;;3.42;;
64601;SDS011;68371;42.630;23.192;2023-04-24T06:55:09;5.47;;;3.63;;
64601;SDS011;68371;42.630;23.192;2023-04-24T06:57:36;9.55;;;4.30;;
64601;SDS011;68371;42.630;23.192;2023-04-24T07:00:03;9.15;;;3.78;;
64601;SDS011;68371;42.630;23.192;2023-04-24T07:02:31;6.25;;;3.90;;
64601;SDS011;68371;42.630;23.192;2023-04-24T07:04:58;4.30;;;3.22;;
64601;SDS011;68371;42.630;23.192;2023-04-24T07:07:27;8.90;;;3.85;;
64601;SDS011;68371;42.630;23.192;2023-04-24T07:09:54;5.78;;;3.60;;
64601;SDS011;68371;42.630;23.192;2023-04-24T07:12:21;3.95;;;2.28;;
64601;SDS011;68371;42.630;23.192;2023-04-24T07:14:48;5.65;;;3.50;;
64601;SDS011;68371;42.630;23.192;2023-04-24T07:17:14;6.78;;;3.70;;
64601;SDS011;68371;42.630;23.192;2023-04-24T07:19:43;8.90;;;4.13;;
64601;SDS011;68371;42.630;23.192;2023-04-24T07:22:10;6.60;;;3.97;;
64601;SDS011;68371;42.630;23.192;2023-04-24T07:24:45;5.63;;;4.00;;
64601;SDS011;68371;42.630;23.192;2023-04-24T07:27:13;5.95;;;4.15;;
64601;SDS011;68371;42.630;23.192;2023-04-24T07:29:40;7.70;;;4.03;;
64601;SDS011;68371;42.630;23.192;2023-04-24T07:32:07;6.15;;;3.97;;
64601;SDS011;68371;42.630;23.192;2023-04-24T07:34:34;5.50;;;3.83;;
64601;SDS011;68371;42.630;23.192;2023-04-24T07:37:01;6.13;;;2.97;;
64601;SDS011;68371;42.630;23.192;2023-04-24T07:39:28;7.88;;;3.80;;
64601;SDS011;68371;42.630;23.192;2023-04-24T07:41:56;5.43;;;3.85;;
64601;SDS011;68371;42.630;23.192;2023-04-24T07:44:25;6.07;;;3.60;;
64601;SDS011;68371;42.630;23.192;2023-04-24T07:46:52;5.55;;;3.15;;
64601;SDS011;68371;42.630;23.192;2023-04-24T07:49:19;5.65;;;4.00;;
64601;SDS011;68371;42.630;23.192;2023-04-24T07:51:46;5.60;;;3.70;;
64601;SDS011;68371;42.630;23.192;2023-04-24T07:54:15;5.95;;;4.07;;
64601;SDS011;68371;42.630;23.192;2023-04-24T07:56:42;8.68;;;3.72;;
64601;SDS011;68371;42.630;23.192;2023-04-24T07:59:11;6.53;;;4.03;;
64601;SDS011;68371;42.630;23.192;2023-04-24T08:01:37;9.10;;;4.20;;
64601;SDS011;68371;42.630;23.192;2023-04-24T08:04:04;10.80;;;5.40;;
64601;SDS011;68371;42.630;23.192;2023-04-24T08:06:31;8.55;;;4.22;;
64601;SDS011;68371;42.630;23.192;2023-04-24T08:08:59;6.10;;;3.17;;
64601;SDS011;68371;42.630;23.192;2023-04-24T08:11:26;5.25;;;3.60;;
64601;SDS011;68371;42.630;23.192;2023-04-24T08:13:53;8.68;;;3.55;;
64601;SDS011;68371;42.630;23.192;2023-04-24T08:16:22;5.28;;;3.80;;
64601;SDS011;68371;42.630;23.192;2023-04-24T08:18:51;9.75;;;3.70;;
64601;SDS011;68371;42.630;23.192;2023-04-24T08:21:18;10.63;;;3.53;;
64601;SDS011;68371;42.630;23.192;2023-04-24T08:23:47;7.95;;;3.65;;
64601;SDS011;68371;42.630;23.192;2023-04-24T08:26:13;5.82;;;3.42;;
64601;SDS011;68371;42.630;23.192;2023-04-24T08:28:40;5.45;;;3.55;;
64601;SDS011;68371;42.630;23.192;2023-04-24T08:31:07;5.00;;;3.60;;
64601;SDS011;68371;42.630;23.192;2023-04-24T08:33:35;4.43;;;3.05;;
64601;SDS011;68371;42.630;23.192;2023-04-24T08:36:02;7.20;;;3.42;;
64601;SDS011;68371;42.630;23.192;2023-04-24T08:38:29;8.57;;;3.78;;
64601;SDS011;68371;42.630;23.192;2023-04-24T08:40:57;6.78;;;3.65;;
64601;SDS011;68371;42.630;23.192;2023-04-24T08:43:25;5.93;;;3.90;;
64601;SDS011;68371;42.630;23.192;2023-04-24T08:45:52;6.70;;;3.60;;
64601;SDS011;68371;42.630;23.192;2023-04-24T08:48:22;6.05;;;3.60;;
64601;SDS011;68371;42.630;23.192;2023-04-24T08:50:53;5.40;;;3.55;;
64601;SDS011;68371;42.630;23.192;2023-04-24T08:55:50;5.22;;;3.45;;
64601;SDS011;68371;42.630;23.192;2023-04-24T08:58:25;7.82;;;3.13;;
64601;SDS011;68371;42.630;23.192;2023-04-24T09:00:55;5.40;;;3.08;;
64601;SDS011;68371;42.630;23.192;2023-04-24T09:03:23;5.93;;;3.58;;
64601;SDS011;68371;42.630;23.192;2023-04-24T09:05:53;4.72;;;3.10;;
64601;SDS011;68371;42.630;23.192;2023-04-24T09:08:23;5.20;;;3.30;;
64601;SDS011;68371;42.630;23.192;2023-04-24T09:10:54;4.20;;;2.25;;
64601;SDS011;68371;42.630;23.192;2023-04-24T09:13:26;4.90;;;3.50;;
64601;SDS011;68371;42.630;23.192;2023-04-24T09:15:53;4.35;;;2.88;;
64601;SDS011;68371;42.630;23.192;2023-04-24T09:18:23;7.95;;;3.20;;
64601;SDS011;68371;42.630;23.192;2023-04-24T09:20:58;6.57;;;3.60;;
64601;SDS011;68371;42.630;23.192;2023-04-24T09:23:26;4.47;;;2.95;;
64601;SDS011;68371;42.630;23.192;2023-04-24T09:25:54;5.50;;;2.95;;
64601;SDS011;68371;42.630;23.192;2023-04-24T09:28:24;6.93;;;2.58;;
64601;SDS011;68371;42.630;23.192;2023-04-24T09:33:28;3.08;;;1.63;;
64601;SDS011;68371;42.630;23.192;2023-04-24T09:35:55;8.30;;;3.08;;
64601;SDS011;68371;42.630;23.192;2023-04-24T09:38:30;8.27;;;3.33;;
64601;SDS011;68371;42.630;23.192;2023-04-24T09:40:58;4.97;;;2.50;;
64601;SDS011;68371;42.630;23.192;2023-04-24T09:43:26;4.43;;;2.53;;
64601;SDS011;68371;42.630;23.192;2023-04-24T09:45:56;9.02;;;3.33;;
64601;SDS011;68371;42.630;23.192;2023-04-24T09:48:30;8.35;;;3.08;;
64601;SDS011;68371;42.630;23.192;2023-04-24T09:50:59;5.38;;;3.00;;
64601;SDS011;68371;42.630;23.192;2023-04-24T09:53:27;7.45;;;3.42;;
64601;SDS011;68371;42.630;23.192;2023-04-24T09:56:02;5.63;;;3.28;;
64601;SDS011;68371;42.630;23.192;2023-04-24T09:58:29;8.43;;;3.47;;
64601;SDS011;68371;42.630;23.192;2023-04-24T10:00:56;6.45;;;3.00;;
64601;SDS011;68371;42.630;23.192;2023-04-24T10:03:25;3.75;;;2.78;;
64601;SDS011;68371;42.630;23.192;2023-04-24T10:05:53;5.55;;;3.03;;
64601;SDS011;68371;42.630;23.192;2023-04-24T10:08:22;4.63;;;2.63;;
64601;SDS011;68371;42.630;23.192;2023-04-24T10:10:51;5.07;;;3.20;;
64601;SDS011;68371;42.630;23.192;2023-04-24T10:13:21;5.93;;;2.65;;
64601;SDS011;68371;42.630;23.192;2023-04-24T10:15:47;5.53;;;2.80;;
64601;SDS011;68371;42.630;23.192;2023-04-24T10:18:16;4.25;;;3.00;;
64601;SDS011;68371;42.630;23.192;2023-04-24T10:20:43;5.78;;;2.90;;
64601;SDS011;68371;42.630;23.192;2023-04-24T10:23:10;4.43;;;2.70;;
64601;SDS011;68371;42.630;23.192;2023-04-24T10:25:39;4.63;;;3.30;;
64601;SDS011;68371;42.630;23.192;2023-04-24T10:28:06;6.13;;;3.00;;
64601;SDS011;68371;42.630;23.192;2023-04-24T10:30:34;3.72;;;2.45;;
64601;SDS011;68371;42.630;23.192;2023-04-24T10:33:01;4.68;;;3.10;;
64601;SDS011;68371;42.630;23.192;2023-04-24T10:35:30;6.00;;;3.05;;
64601;SDS011;68371;42.630;23.192;2023-04-24T10:37:58;4.35;;;3.30;;
64601;SDS011;68371;42.630;23.192;2023-04-24T10:40:30;4.43;;;3.05;;
64601;SDS011;68371;42.630;23.192;2023-04-24T10:43:01;6.13;;;3.05;;
64601;SDS011;68371;42.630;23.192;2023-04-24T10:45:31;6.68;;;3.33;;
64601;SDS011;68371;42.630;23.192;2023-04-24T10:47:58;7.70;;;2.72;;
64601;SDS011;68371;42.630;23.192;2023-04-24T10:50:26;6.82;;;3.10;;
64601;SDS011;68371;42.630;23.192;2023-04-24T10:53:04;7.05;;;3.15;;
64601;SDS011;68371;42.630;23.192;2023-04-24T10:55:39;6.15;;;3.50;;
64601;SDS011;68371;42.630;23.192;2023-04-24T10:58:08;7.03;;;3.17;;
64601;SDS011;68371;42.630;23.192;2023-04-24T11:00:36;11.10;;;3.65;;
64601;SDS011;68371;42.630;23.192;2023-04-24T11:03:04;6.03;;;3.28;;
64601;SDS011;68371;42.630;23.192;2023-04-24T11:05:51;8.27;;;3.47;;
64601;SDS011;68371;42.630;23.192;2023-04-24T11:08:26;7.18;;;3.67;;
64601;SDS011;68371;42.630;23.192;2023-04-24T11:10:58;10.38;;;3.67;;
64601;SDS011;68371;42.630;23.192;2023-04-24T11:16:30;6.25;;;4.32;;
64601;SDS011;68371;42.630;23.192;2023-04-24T11:19:02;9.07;;;4.18;;
64601;SDS011;68371;42.630;23.192;2023-04-24T11:21:31;9.82;;;4.40;;
64601;SDS011;68371;42.630;23.192;2023-04-24T11:23:58;12.40;;;5.25;;
64601;SDS011;68371;42.630;23.192;2023-04-24T11:26:45;8.27;;;4.50;;
64601;SDS011;68371;42.630;23.192;2023-04-24T11:29:13;27.38;;;10.10;;
64601;SDS011;68371;42.630;23.192;2023-04-24T11:31:40;17.98;;;8.63;;
64601;SDS011;68371;42.630;23.192;2023-04-24T11:34:14;11.40;;;5.95;;
64601;SDS011;68371;42.630;23.192;2023-04-24T11:47:30;6.22;;;3.65;;
64601;SDS011;68371;42.630;23.192;2023-04-24T11:49:58;5.57;;;4.88;;
64601;SDS011;68371;42.630;23.192;2023-04-24T11:52:26;8.27;;;4.22;;
64601;SDS011;68371;42.630;23.192;2023-04-24T11:54:53;5.00;;;3.47;;
64601;SDS011;68371;42.630;23.192;2023-04-24T11:57:20;7.47;;;4.20;;
64601;SDS011;68371;42.630;23.192;2023-04-24T11:59:47;5.50;;;3.97;;
64601;SDS011;68371;42.630;23.192;2023-04-24T12:02:21;4.43;;;3.30;;
64601;SDS011;68371;42.630;23.192;2023-04-24T12:04:50;6.50;;;4.18;;
64601;SDS011;68371;42.630;23.192;2023-04-24T12:07:18;5.55;;;3.63;;
64601;SDS011;68371;42.630;23.192;2023-04-24T12:09:45;5.68;;;3.40;;
64601;SDS011;68371;42.630;23.192;2023-04-24T12:12:14;6.03;;;3.50;;
64601;SDS011;68371;42.630;23.192;2023-04-24T12:14:47;6.47;;;3.80;;
64601;SDS011;68371;42.630;23.192;2023-04-24T12:17:15;6.28;;;4.22;;
64601;SDS011;68371;42.630;23.192;2023-04-24T12:19:46;5.35;;;3.63;;
64601;SDS011;68371;42.630;23.192;2023-04-24T12:22:17;5.80;;;2.95;;
64601;SDS011;68371;42.630;23.192;2023-04-24T12:25:00;4.60;;;3.35;;
64601;SDS011;68371;42.630;23.192;2023-04-24T12:27:30;6.40;;;3.92;;
64601;SDS011;68371;42.630;23.192;2023-04-24T12:29:58;5.57;;;3.70;;
64601;SDS011;68371;42.630;23.192;2023-04-24T12:32:26;4.65;;;4.07;;
64601;SDS011;68371;42.630;23.192;2023-04-24T12:34:53;4.88;;;3.72;;
64601;SDS011;68371;42.630;23.192;2023-04-24T12:37:23;8.02;;;3.78;;
64601;SDS011;68371;42.630;23.192;2023-04-24T12:40:00;6.70;;;3.28;;
64601;SDS011;68371;42.630;23.192;2023-04-24T12:42:29;7.35;;;3.85;;
64601;SDS011;68371;42.630;23.192;2023-04-24T12:44:56;4.10;;;3.38;;
64601;SDS011;68371;42.630;23.192;2023-04-24T12:47:25;6.43;;;4.15;;
64601;SDS011;68371;42.630;23.192;2023-04-24T12:49:52;7.97;;;3.67;;
64601;SDS011;68371;42.630;23.192;2023-04-24T12:52:20;4.82;;;3.60;;
64601;SDS011;68371;42.630;23.192;2023-04-24T12:54:51;6.25;;;3.58;;
64601;SDS011;68371;42.630;23.192;2023-04-24T12:57:19;5.60;;;2.95;;
64601;SDS011;68371;42.630;23.192;2023-04-24T12:59:46;4.50;;;3.10;;
64601;SDS011;68371;42.630;23.192;2023-04-24T13:02:12;4.22;;;3.25;;
64601;SDS011;68371;42.630;23.192;2023-04-24T13:04:42;7.30;;;3.25;;
64601;SDS011;68371;42.630;23.192;2023-04-24T13:07:09;8.30;;;3.42;;
64601;SDS011;68371;42.630;23.192;2023-04-24T13:09:36;3.95;;;3.10;;
64601;SDS011;68371;42.630;23.192;2023-04-24T13:12:04;4.15;;;2.75;;
64601;SDS011;68371;42.630;23.192;2023-04-24T13:14:31;5.47;;;3.25;;
64601;SDS011;68371;42.630;23.192;2023-04-24T13:16:58;3.75;;;2.83;;
64601;SDS011;68371;42.630;23.192;2023-04-24T13:19:25;4.93;;;2.58;;
64601;SDS011;68371;42.630;23.192;2023-04-24T13:21:52;4.15;;;2.70;;
64601;SDS011;68371;42.630;23.192;2023-04-24T13:24:22;3.33;;;2.58;;
64601;SDS011;68371;42.630;23.192;2023-04-24T13:26:49;8.35;;;2.53;;
64601;SDS011;68371;42.630;23.192;2023-04-24T13:29:17;6.80;;;2.55;;
64601;SDS011;68371;42.630;23.192;2023-04-24T13:31:45;7.18;;;2.55;;
64601;SDS011;68371;42.630;23.192;2023-04-24T13:34:12;3.67;;;2.70;;
64601;SDS011;68371;42.630;23.192;2023-04-24T13:36:39;5.03;;;2.88;;
64601;SDS011;68371;42.630;23.192;2023-04-24T13:39:05;6.88;;;3.03;;
64601;SDS011;68371;42.630;23.192;2023-04-24T13:41:32;5.25;;;2.92;;
64601;SDS011;68371;42.630;23.192;2023-04-24T13:44:00;7.15;;;3.95;;
64601;SDS011;68371;42.630;23.192;2023-04-24T13:46:28;6.32;;;2.85;;
64601;SDS011;68371;42.630;23.192;2023-04-24T13:48:55;5.07;;;2.35;;
64601;SDS011;68371;42.630;23.192;2023-04-24T13:51:23;7.30;;;3.08;;
64601;SDS011;68371;42.630;23.192;2023-04-24T13:53:52;5.45;;;2.50;;
64601;SDS011;68371;42.630;23.192;2023-04-24T13:56:19;4.15;;;2.88;;
64601;SDS011;68371;42.630;23.192;2023-04-24T13:58:45;6.32;;;2.80;;
64601;SDS011;68371;42.630;23.192;2023-04-24T14:01:13;4.15;;;3.03;;
64601;SDS011;68371;42.630;23.192;2023-04-24T14:03:42;7.65;;;3.15;;
64601;SDS011;68371;42.630;23.192;2023-04-24T14:06:09;6.75;;;2.85;;
64601;SDS011;68371;42.630;23.192;2023-04-24T14:08:36;6.30;;;3.17;;
64601;SDS011;68371;42.630;23.192;2023-04-24T14:11:02;8.65;;;3.05;;
64601;SDS011;68371;42.630;23.192;2023-04-24T14:13:30;6.13;;;2.80;;
64601;SDS011;68371;42.630;23.192;2023-04-24T14:15:57;9.85;;;3.15;;
64601;SDS011;68371;42.630;23.192;2023-04-24T14:18:25;4.53;;;3.10;;
64601;SDS011;68371;42.630;23.192;2023-04-24T14:20:53;4.15;;;2.70;;
64601;SDS011;68371;42.630;23.192;2023-04-24T14:23:20;6.82;;;2.55;;
64601;SDS011;68371;42.630;23.192;2023-04-24T14:25:47;7.25;;;2.63;;
64601;SDS011;68371;42.630;23.192;2023-04-24T14:28:16;6.25;;;2.78;;
64601;SDS011;68371;42.630;23.192;2023-04-24T14:30:43;5.82;;;3.65;;
64601;SDS011;68371;42.630;23.192;2023-04-24T14:33:10;9.27;;;2.97;;
64601;SDS011;68371;42.630;23.192;2023-04-24T14:35:37;5.53;;;2.55;;
64601;SDS011;68371;42.630;23.192;2023-04-24T14:38:06;3.67;;;2.75;;
64601;SDS011;68371;42.630;23.192;2023-04-24T14:40:32;4.57;;;2.67;;
64601;SDS011;68371;42.630;23.192;2023-04-24T14:42:59;7.80;;;3.00;;
64601;SDS011;68371;42.630;23.192;2023-04-24T14:45:26;9.57;;;2.90;;
64601;SDS011;68371;42.630;23.192;2023-04-24T14:47:53;4.97;;;2.47;;
64601;SDS011;68371;42.630;23.192;2023-04-24T14:50:22;9.20;;;3.00;;
64601;SDS011;68371;42.630;23.192;2023-04-24T14:52:52;8.63;;;3.08;;
64601;SDS011;68371;42.630;23.192;2023-04-24T14:55:21;3.42;;;2.60;;
64601;SDS011;68371;42.630;23.192;2023-04-24T14:57:47;4.38;;;2.20;;